createdAt,value
2019-06-15T00:02:47.323Z,998.48
2019-06-15T00:07:47.184Z,998.45
2019-06-15T00:12:49.421Z,998.12
2019-06-15T00:17:47.150Z,997.72
2019-06-15T00:22:46.968Z,997.70
2019-06-15T00:27:46.978Z,997.83
2019-06-15T00:32:47.100Z,997.68
2019-06-15T00:37:54.461Z,997.71
2019-06-15T00:42:46.670Z,997.94
2019-06-15T00:47:46.621Z,998.00
2019-06-15T00:52:46.560Z,997.99
2019-06-15T00:57:46.556Z,997.74
2019-06-15T01:02:46.483Z,997.81
2019-06-15T01:07:46.437Z,997.90
2019-06-15T01:12:46.504Z,998.14
2019-06-15T01:17:46.380Z,998.14
2019-06-15T01:22:46.363Z,998.24
2019-06-15T01:27:46.174Z,998.27
2019-06-15T01:32:46.334Z,998.23
2019-06-15T01:37:46.499Z,998.22
2019-06-15T01:42:46.187Z,998.17
2019-06-15T01:47:46.114Z,998.10
2019-06-15T01:52:46.030Z,998.12
2019-06-15T01:57:46.011Z,998.27
2019-06-15T02:02:45.963Z,998.41
2019-06-15T02:07:46.055Z,998.13
2019-06-15T02:12:45.815Z,997.81
2019-06-15T02:17:45.852Z,997.62
2019-06-15T02:22:45.761Z,997.76
2019-06-15T02:27:45.704Z,997.51
2019-06-15T02:32:45.707Z,997.46
2019-06-15T02:37:45.625Z,997.52
2019-06-15T02:42:45.580Z,997.54
2019-06-15T02:47:45.559Z,997.50
2019-06-15T02:52:45.498Z,997.64
2019-06-15T02:57:45.426Z,997.63
2019-06-15T03:02:45.459Z,997.37
2019-06-15T03:07:45.899Z,997.66
2019-06-15T03:12:45.426Z,998.61
2019-06-15T03:17:45.675Z,998.89
2019-06-15T03:22:45.796Z,998.36
2019-06-15T03:27:45.876Z,998.50
2019-06-15T03:32:46.214Z,998.51
2019-06-15T03:37:46.139Z,998.55
2019-06-15T03:42:46.223Z,998.37
2019-06-15T03:47:46.023Z,998.56
2019-06-15T03:52:46.045Z,998.65
2019-06-15T03:57:46.008Z,998.62
2019-06-15T04:02:46.061Z,998.54
2019-06-15T04:07:46.147Z,998.63
2019-06-15T04:12:46.014Z,998.53
2019-06-15T04:17:46.334Z,998.54
2019-06-15T04:22:46.337Z,998.47
2019-06-15T04:27:46.292Z,998.36
2019-06-15T04:32:46.347Z,998.36
2019-06-15T04:37:46.322Z,998.44
2019-06-15T04:42:46.463Z,998.47
2019-06-15T04:47:46.273Z,998.47
2019-06-15T04:52:46.257Z,998.51
2019-06-15T04:57:46.274Z,998.50
2019-06-15T05:02:46.244Z,998.34
2019-06-15T05:07:46.199Z,998.32
2019-06-15T05:12:46.269Z,998.27
2019-06-15T05:17:46.365Z,998.39
2019-06-15T05:22:45.955Z,998.43
2019-06-15T05:27:46.033Z,998.48
2019-06-15T05:32:46.109Z,998.45
2019-06-15T05:37:45.834Z,998.42
2019-06-15T05:42:45.737Z,998.47
2019-06-15T05:47:45.676Z,998.57
2019-06-15T05:52:45.645Z,998.58
2019-06-15T05:57:45.561Z,998.60
2019-06-15T06:02:45.550Z,998.63
2019-06-15T06:07:45.471Z,998.67
2019-06-15T06:12:45.708Z,998.68
2019-06-15T06:17:45.493Z,998.62
2019-06-15T06:22:45.464Z,998.65
2019-06-15T06:27:45.373Z,998.67
2019-06-15T06:32:45.346Z,998.72
2019-06-15T06:37:45.272Z,998.81
2019-06-15T06:42:45.233Z,998.78
2019-06-15T06:47:45.250Z,998.92
2019-06-15T06:52:45.389Z,998.83
2019-06-15T06:57:52.551Z,998.88
2019-06-15T07:02:46.353Z,998.95
2019-06-15T07:07:45.177Z,999.03
2019-06-15T07:12:45.053Z,999.23
2019-06-15T07:17:44.903Z,999.30
2019-06-15T07:22:44.884Z,999.35
2019-06-15T07:27:44.914Z,999.47
2019-06-15T07:32:44.962Z,999.67
2019-06-15T07:37:44.864Z,999.65
2019-06-15T07:42:44.755Z,999.64
2019-06-15T07:47:44.772Z,999.80
2019-06-15T07:52:45.938Z,999.84
2019-06-15T07:57:44.753Z,999.97
2019-06-15T08:02:44.609Z,999.99
2019-06-15T08:07:44.531Z,1000.20
2019-06-15T08:12:44.522Z,1000.22
2019-06-15T08:17:45.693Z,1000.35
2019-06-15T08:22:44.537Z,1000.34
2019-06-15T08:27:44.635Z,1000.42
2019-06-15T08:32:44.432Z,1000.56
2019-06-15T08:37:44.671Z,1000.73
2019-06-15T08:42:44.417Z,1000.86
2019-06-15T08:47:44.305Z,1000.81
2019-06-15T08:52:44.349Z,1000.85
2019-06-15T08:57:44.379Z,1000.87
2019-06-15T09:02:44.430Z,1001.02
2019-06-15T09:07:44.158Z,1001.18
2019-06-15T09:12:44.071Z,1001.22
2019-06-15T09:17:44.223Z,1001.23
2019-06-15T09:22:45.456Z,1001.24
2019-06-15T09:27:43.980Z,1001.30
2019-06-15T09:32:44.571Z,1001.40
2019-06-15T09:37:43.870Z,1001.55
2019-06-15T09:42:44.181Z,1001.56
2019-06-15T09:47:43.811Z,1001.63
2019-06-15T09:52:44.003Z,1001.68
2019-06-15T09:57:43.781Z,1001.89
2019-06-15T10:02:43.716Z,1001.91
2019-06-15T10:07:43.671Z,1001.92
2019-06-15T10:12:44.058Z,1001.95
2019-06-15T10:17:43.638Z,1002.06
2019-06-15T10:22:43.609Z,1002.11
2019-06-15T10:27:43.691Z,1002.08
2019-06-15T10:32:43.713Z,1002.14
2019-06-15T10:37:43.394Z,1002.19
2019-06-15T10:42:43.350Z,1002.30
2019-06-15T10:47:43.496Z,1002.32
2019-06-15T10:52:43.520Z,1002.28
2019-06-15T10:57:43.262Z,1002.30
2019-06-15T11:02:43.154Z,1002.32
2019-06-15T11:07:43.110Z,1002.38
2019-06-15T11:12:46.740Z,1002.48
2019-06-15T11:17:43.205Z,1002.55
2019-06-15T11:22:42.936Z,1002.52
2019-06-15T11:27:42.903Z,1002.62
2019-06-15T11:32:42.979Z,1002.68
2019-06-15T11:37:42.918Z,1002.67
2019-06-15T11:42:42.908Z,1002.71
2019-06-15T11:47:42.807Z,1002.66
2019-06-15T11:52:42.726Z,1002.59
2019-06-15T11:57:42.677Z,1002.63
2019-06-15T12:02:42.897Z,1002.71
2019-06-15T12:07:42.803Z,1002.69
2019-06-15T12:12:42.607Z,1002.67
2019-06-15T12:17:42.508Z,1002.75
2019-06-15T12:22:42.498Z,1002.68
2019-06-15T12:27:42.456Z,1002.67
2019-06-15T12:32:42.402Z,1002.83
2019-06-15T12:37:42.429Z,1002.65
2019-06-15T12:42:42.725Z,1002.80
2019-06-15T12:47:42.696Z,1002.86
2019-06-15T12:52:42.737Z,1002.83
2019-06-15T12:57:42.376Z,1002.87
2019-06-15T13:02:42.240Z,1002.92
2019-06-15T13:07:42.361Z,1002.73
2019-06-15T13:12:42.138Z,1002.87
2019-06-15T13:17:42.136Z,1002.94
2019-06-15T13:22:42.157Z,1002.75
2019-06-15T13:27:42.341Z,1002.92
2019-06-15T13:32:42.032Z,1002.94
2019-06-15T13:37:42.543Z,1003.00
2019-06-15T13:42:41.969Z,1002.98
2019-06-15T13:47:41.903Z,1002.99
2019-06-15T13:52:42.906Z,1003.10
2019-06-15T13:57:41.949Z,1003.00
2019-06-15T14:02:41.873Z,1003.09
2019-06-15T14:07:42.020Z,1003.10
2019-06-15T14:12:41.944Z,1003.05
2019-06-15T14:17:41.728Z,1003.09
2019-06-15T14:22:41.696Z,1003.25
2019-06-15T14:27:41.704Z,1003.12
2019-06-15T14:32:41.709Z,1003.08
2019-06-15T14:37:41.688Z,1003.06
2019-06-15T14:42:41.610Z,1002.94
2019-06-15T14:47:41.545Z,1003.00
2019-06-15T14:52:41.653Z,1003.02
2019-06-15T14:57:41.428Z,1002.94
2019-06-15T15:02:41.368Z,1003.20
2019-06-15T15:07:41.360Z,1003.20
2019-06-15T15:12:41.946Z,1003.03
2019-06-15T15:17:41.313Z,1003.02
2019-06-15T15:22:41.257Z,1002.99
2019-06-15T15:27:41.212Z,1003.01
2019-06-15T15:32:41.169Z,1002.94
2019-06-15T15:37:41.115Z,1002.92
2019-06-15T15:42:41.075Z,1002.90
2019-06-15T15:47:41.055Z,1002.89
2019-06-15T15:52:41.007Z,1002.86
2019-06-15T15:57:40.981Z,1002.84
2019-06-15T16:02:52.056Z,1002.78
2019-06-15T16:07:41.900Z,1002.88
2019-06-15T16:12:40.838Z,1002.92
